createdAt,value
2023-07-25T05:01:18.662Z,46.88
2023-07-25T05:02:18.686Z,46.91
2023-07-25T05:03:18.923Z,46.87
2023-07-25T05:04:18.778Z,46.90
2023-07-25T05:05:18.807Z,46.89
2023-07-25T05:06:18.899Z,46.91
2023-07-25T05:07:18.855Z,46.89
2023-07-25T05:08:18.874Z,46.83
2023-07-25T05:09:18.906Z,46.86
2023-07-25T05:10:18.911Z,46.83
2023-07-25T05:11:18.939Z,46.88
2023-07-25T05:12:18.966Z,46.78
2023-07-25T05:13:19.045Z,46.81
2023-07-25T05:14:19.081Z,46.78
2023-07-25T05:15:19.159Z,46.75
2023-07-25T05:16:19.227Z,46.79
2023-07-25T05:17:19.256Z,46.72
2023-07-25T05:18:19.327Z,46.66
2023-07-25T05:19:19.363Z,46.64
2023-07-25T05:20:19.410Z,46.59
2023-07-25T05:21:19.459Z,46.57
2023-07-25T05:22:19.515Z,46.51
2023-07-25T05:23:19.552Z,46.54
2023-07-25T05:24:19.592Z,46.48
2023-07-25T05:25:19.645Z,46.49
2023-07-25T05:26:19.674Z,46.42
2023-07-25T05:27:19.735Z,46.37
2023-07-25T05:28:19.775Z,46.31
2023-07-25T05:29:19.792Z,46.31
2023-07-25T05:30:19.890Z,46.22
2023-07-25T05:31:19.927Z,46.25
2023-07-25T05:32:19.916Z,46.21
2023-07-25T05:33:19.980Z,46.13
2023-07-25T05:34:19.999Z,46.12
2023-07-25T05:35:20.039Z,46.04
2023-07-25T05:36:20.066Z,46.01
2023-07-25T05:37:20.137Z,45.98
2023-07-25T05:38:20.139Z,45.93
2023-07-25T05:39:20.204Z,45.90
2023-07-25T05:40:20.227Z,45.92
2023-07-25T05:41:20.295Z,45.90
2023-07-25T05:42:20.348Z,45.88
2023-07-25T05:43:20.344Z,45.83
2023-07-25T05:44:20.372Z,45.79
2023-07-25T05:45:20.431Z,45.79
2023-07-25T05:46:20.476Z,45.79
2023-07-25T05:47:20.495Z,45.74
2023-07-25T05:48:20.545Z,45.73
2023-07-25T05:49:20.602Z,45.72
2023-07-25T05:50:20.615Z,45.70
2023-07-25T05:51:20.650Z,45.70
2023-07-25T05:52:20.687Z,45.66
2023-07-25T05:53:20.747Z,45.66
2023-07-25T05:54:20.812Z,45.65
2023-07-25T05:55:20.837Z,45.62
2023-07-25T05:56:20.912Z,45.63
2023-07-25T05:57:20.909Z,45.60
2023-07-25T05:58:20.952Z,45.56
2023-07-25T05:59:21.001Z,45.60
2023-07-25T06:00:22.535Z,45.64
2023-07-25T06:01:21.124Z,45.58
2023-07-25T06:02:21.143Z,45.61
2023-07-25T06:03:21.151Z,45.56
2023-07-25T06:04:21.169Z,45.57
2023-07-25T06:05:21.269Z,45.58
2023-07-25T06:06:21.290Z,45.54
2023-07-25T06:07:23.887Z,45.53
2023-07-25T06:08:21.335Z,45.50
2023-07-25T06:09:21.342Z,45.48
2023-07-25T06:10:21.310Z,45.51
2023-07-25T06:11:21.309Z,45.50
2023-07-25T06:12:21.265Z,45.50
2023-07-25T06:13:21.357Z,45.50
2023-07-25T06:14:21.258Z,45.45
2023-07-25T06:15:21.254Z,45.43
2023-07-25T06:16:21.336Z,45.40
2023-07-25T06:17:21.294Z,45.44
2023-07-25T06:18:21.274Z,45.39
2023-07-25T06:19:21.234Z,45.37
2023-07-25T06:20:21.222Z,45.33
2023-07-25T06:21:21.229Z,45.24
2023-07-25T06:22:21.200Z,45.25
2023-07-25T06:23:21.205Z,45.26
2023-07-25T06:24:21.254Z,45.23
2023-07-25T06:25:21.194Z,45.21
2023-07-25T06:26:21.177Z,45.18
2023-07-25T06:27:21.179Z,45.13
2023-07-25T06:28:21.161Z,45.13
2023-07-25T06:29:21.196Z,45.10
2023-07-25T06:30:21.171Z,45.07
2023-07-25T06:31:21.207Z,45.04
2023-07-25T06:32:21.158Z,45.04
2023-07-25T06:33:21.160Z,45.06
2023-07-25T06:34:21.171Z,45.03
2023-07-25T06:35:21.129Z,44.96
2023-07-25T06:36:21.164Z,44.90
2023-07-25T06:37:21.098Z,44.90
2023-07-25T06:38:21.123Z,44.87
2023-07-25T06:39:21.103Z,44.92
2023-07-25T06:40:21.108Z,44.86
2023-07-25T06:41:21.110Z,44.88
2023-07-25T06:42:21.066Z,44.87
2023-07-25T06:43:21.093Z,44.91
2023-07-25T06:44:21.067Z,44.90
2023-07-25T06:45:21.073Z,44.88
2023-07-25T06:46:21.084Z,44.87
2023-07-25T06:47:21.079Z,44.86
2023-07-25T06:48:21.066Z,44.82
2023-07-25T06:49:21.019Z,44.91
2023-07-25T06:50:21.035Z,44.88
2023-07-25T06:51:21.009Z,44.88
2023-07-25T06:52:21.015Z,44.94
2023-07-25T06:53:21.019Z,44.94
2023-07-25T06:54:21.021Z,44.90
2023-07-25T06:55:21.004Z,44.86
2023-07-25T06:56:21.002Z,44.85
2023-07-25T06:57:20.963Z,44.86
2023-07-25T06:58:20.993Z,44.82
2023-07-25T06:59:20.988Z,44.80
2023-07-25T07:00:20.994Z,44.82
2023-07-25T07:01:21.030Z,44.78
2023-07-25T07:02:21.065Z,44.76
2023-07-25T07:03:21.064Z,44.77
2023-07-25T07:04:21.001Z,44.85
2023-07-25T07:05:29.444Z,44.79
2023-07-25T07:06:22.089Z,44.79
2023-07-25T07:07:21.052Z,44.79
2023-07-25T07:08:21.060Z,44.80
2023-07-25T07:09:21.058Z,44.80
2023-07-25T07:10:21.032Z,44.85
2023-07-25T07:11:21.011Z,44.84
2023-07-25T07:12:21.029Z,44.87
2023-07-25T07:13:20.991Z,44.89
2023-07-25T07:14:21.000Z,44.85
2023-07-25T07:15:21.007Z,44.87
2023-07-25T07:16:21.010Z,44.86
2023-07-25T07:17:21.037Z,44.87
2023-07-25T07:18:21.079Z,44.89
2023-07-25T07:19:21.139Z,44.86
2023-07-25T07:20:21.164Z,44.84
2023-07-25T07:21:21.207Z,44.82
2023-07-25T07:22:21.234Z,44.86
2023-07-25T07:23:21.271Z,44.86
2023-07-25T07:24:21.337Z,44.87
2023-07-25T07:25:21.344Z,44.82
2023-07-25T07:26:21.405Z,44.80
2023-07-25T07:27:21.419Z,44.86
2023-07-25T07:28:21.445Z,44.80
2023-07-25T07:29:21.521Z,44.80
2023-07-25T07:30:21.521Z,44.73
2023-07-25T07:31:21.570Z,44.69
2023-07-25T07:32:21.652Z,44.68
2023-07-25T07:33:21.686Z,44.71
2023-07-25T07:34:21.690Z,44.71
2023-07-25T07:35:21.730Z,44.74
2023-07-25T07:36:21.777Z,44.72
2023-07-25T07:37:21.793Z,44.71
2023-07-25T07:38:21.822Z,44.71
2023-07-25T07:39:21.894Z,44.69
2023-07-25T07:40:21.883Z,44.73
2023-07-25T07:41:21.929Z,44.68
2023-07-25T07:42:22.007Z,44.73
2023-07-25T07:43:22.032Z,44.73
2023-07-25T07:44:23.132Z,44.71
2023-07-25T07:45:22.035Z,44.71
2023-07-25T07:46:22.037Z,44.69
2023-07-25T07:47:22.076Z,44.66
2023-07-25T07:48:22.041Z,44.71
2023-07-25T07:49:21.991Z,44.63
2023-07-25T07:50:22.025Z,44.67
2023-07-25T07:51:22.006Z,44.64
2023-07-25T07:52:33.186Z,44.61
2023-07-25T07:53:23.007Z,44.61
2023-07-25T07:54:21.983Z,44.59
2023-07-25T07:55:21.957Z,44.60
2023-07-25T07:56:21.964Z,44.57
2023-07-25T07:57:21.967Z,44.59
2023-07-25T07:58:21.988Z,44.56
2023-07-25T07:59:21.916Z,44.55
2023-07-25T08:00:21.928Z,44.56
2023-07-25T08:01:21.992Z,44.54
2023-07-25T08:02:22.000Z,44.53
2023-07-25T08:03:21.940Z,44.53
